sensor_id;sensor_type;location;lat;lon;timestamp;P1;durP1;ratioP1;P2;durP2;ratioP2
54921;SDS011;40824;45.116;21.296;2023-04-24T00:00:09;7.85;;;5.60;;
54921;SDS011;40824;45.116;21.296;2023-04-24T00:02:35;9.57;;;6.32;;
54921;SDS011;40824;45.116;21.296;2023-04-24T00:05:06;9.93;;;6.53;;
54921;SDS011;40824;45.116;21.296;2023-04-24T00:07:34;9.98;;;6.00;;
54921;SDS011;40824;45.116;21.296;2023-04-24T00:10:00;11.63;;;5.72;;
54921;SDS011;40824;45.116;21.296;2023-04-24T00:12:27;7.78;;;5.55;;
54921;SDS011;40824;45.116;21.296;2023-04-24T00:14:53;12.52;;;5.72;;
54921;SDS011;40824;45.116;21.296;2023-04-24T00:17:19;8.48;;;5.78;;
54921;SDS011;40824;45.116;21.296;2023-04-24T00:19:46;8.93;;;6.18;;
54921;SDS011;40824;45.116;21.296;2023-04-24T00:22:12;8.60;;;6.30;;
54921;SDS011;40824;45.116;21.296;2023-04-24T00:24:39;9.38;;;6.22;;
54921;SDS011;40824;45.116;21.296;2023-04-24T00:27:06;11.05;;;5.85;;
54921;SDS011;40824;45.116;21.296;2023-04-24T00:29:32;10.27;;;6.15;;
54921;SDS011;40824;45.116;21.296;2023-04-24T00:31:58;11.07;;;6.38;;
54921;SDS011;40824;45.116;21.296;2023-04-24T00:34:24;11.35;;;6.05;;
54921;SDS011;40824;45.116;21.296;2023-04-24T00:36:50;9.32;;;5.95;;
54921;SDS011;40824;45.116;21.296;2023-04-24T00:39:19;11.30;;;6.18;;
54921;SDS011;40824;45.116;21.296;2023-04-24T00:41:46;9.73;;;6.53;;
54921;SDS011;40824;45.116;21.296;2023-04-24T00:44:13;10.15;;;5.47;;
54921;SDS011;40824;45.116;21.296;2023-04-24T00:46:39;8.98;;;5.88;;
54921;SDS011;40824;45.116;21.296;2023-04-24T00:49:05;7.45;;;5.80;;
54921;SDS011;40824;45.116;21.296;2023-04-24T00:51:34;7.45;;;5.90;;
54921;SDS011;40824;45.116;21.296;2023-04-24T00:54:01;11.23;;;6.03;;
54921;SDS011;40824;45.116;21.296;2023-04-24T00:56:27;6.22;;;4.72;;
54921;SDS011;40824;45.116;21.296;2023-04-24T00:58:54;9.60;;;5.53;;
54921;SDS011;40824;45.116;21.296;2023-04-24T01:01:20;8.32;;;5.40;;
54921;SDS011;40824;45.116;21.296;2023-04-24T01:03:46;8.30;;;5.38;;
54921;SDS011;40824;45.116;21.296;2023-04-24T01:06:13;8.70;;;5.88;;
54921;SDS011;40824;45.116;21.296;2023-04-24T01:08:39;7.90;;;5.57;;
54921;SDS011;40824;45.116;21.296;2023-04-24T01:11:05;10.23;;;5.35;;
54921;SDS011;40824;45.116;21.296;2023-04-24T01:13:32;9.73;;;5.80;;
54921;SDS011;40824;45.116;21.296;2023-04-24T01:15:58;8.48;;;5.93;;
54921;SDS011;40824;45.116;21.296;2023-04-24T01:18:26;9.18;;;5.43;;
54921;SDS011;40824;45.116;21.296;2023-04-24T01:20:53;8.50;;;5.47;;
54921;SDS011;40824;45.116;21.296;2023-04-24T01:23:19;7.75;;;5.70;;
54921;SDS011;40824;45.116;21.296;2023-04-24T01:25:45;9.73;;;5.68;;
54921;SDS011;40824;45.116;21.296;2023-04-24T01:28:12;8.93;;;5.57;;
54921;SDS011;40824;45.116;21.296;2023-04-24T01:30:39;9.73;;;6.28;;
54921;SDS011;40824;45.116;21.296;2023-04-24T01:33:05;9.52;;;5.88;;
54921;SDS011;40824;45.116;21.296;2023-04-24T01:35:31;10.82;;;6.25;;
54921;SDS011;40824;45.116;21.296;2023-04-24T01:37:58;11.93;;;6.25;;
54921;SDS011;40824;45.116;21.296;2023-04-24T01:40:24;11.90;;;6.40;;
54921;SDS011;40824;45.116;21.296;2023-04-24T01:42:50;9.52;;;5.72;;
54921;SDS011;40824;45.116;21.296;2023-04-24T01:45:17;9.02;;;6.30;;
54921;SDS011;40824;45.116;21.296;2023-04-24T01:47:43;7.20;;;5.63;;
54921;SDS011;40824;45.116;21.296;2023-04-24T01:50:09;9.27;;;6.05;;
54921;SDS011;40824;45.116;21.296;2023-04-24T01:52:36;10.73;;;6.25;;
54921;SDS011;40824;45.116;21.296;2023-04-24T01:55:02;8.57;;;5.97;;
54921;SDS011;40824;45.116;21.296;2023-04-24T01:57:29;8.43;;;6.47;;
54921;SDS011;40824;45.116;21.296;2023-04-24T01:59:58;8.88;;;5.75;;
54921;SDS011;40824;45.116;21.296;2023-04-24T02:02:24;8.10;;;5.95;;
54921;SDS011;40824;45.116;21.296;2023-04-24T02:04:52;8.48;;;5.95;;
54921;SDS011;40824;45.116;21.296;2023-04-24T02:07:19;10.55;;;6.25;;
54921;SDS011;40824;45.116;21.296;2023-04-24T02:09:45;9.75;;;5.70;;
54921;SDS011;40824;45.116;21.296;2023-04-24T02:12:11;10.85;;;5.90;;
54921;SDS011;40824;45.116;21.296;2023-04-24T02:14:37;7.93;;;5.80;;
54921;SDS011;40824;45.116;21.296;2023-04-24T02:17:03;7.18;;;5.93;;
54921;SDS011;40824;45.116;21.296;2023-04-24T02:19:30;6.43;;;5.35;;
54921;SDS011;40824;45.116;21.296;2023-04-24T02:21:56;6.90;;;5.40;;
54921;SDS011;40824;45.116;21.296;2023-04-24T02:24:22;9.43;;;5.63;;
54921;SDS011;40824;45.116;21.296;2023-04-24T02:26:48;9.95;;;5.90;;
54921;SDS011;40824;45.116;21.296;2023-04-24T02:29:14;8.05;;;5.85;;
54921;SDS011;40824;45.116;21.296;2023-04-24T02:31:40;9.98;;;5.95;;
54921;SDS011;40824;45.116;21.296;2023-04-24T02:34:07;7.85;;;5.50;;
54921;SDS011;40824;45.116;21.296;2023-04-24T02:36:33;9.68;;;5.90;;
54921;SDS011;40824;45.116;21.296;2023-04-24T02:38:59;8.77;;;5.57;;
54921;SDS011;40824;45.116;21.296;2023-04-24T02:41:26;8.07;;;5.10;;
54921;SDS011;40824;45.116;21.296;2023-04-24T02:43:57;7.28;;;5.07;;
54921;SDS011;40824;45.116;21.296;2023-04-24T02:46:23;6.80;;;5.18;;
54921;SDS011;40824;45.116;21.296;2023-04-24T02:48:50;8.05;;;5.50;;
54921;SDS011;40824;45.116;21.296;2023-04-24T02:51:16;9.52;;;5.82;;
54921;SDS011;40824;45.116;21.296;2023-04-24T02:53:42;9.13;;;6.45;;
54921;SDS011;40824;45.116;21.296;2023-04-24T02:56:08;10.88;;;5.35;;
54921;SDS011;40824;45.116;21.296;2023-04-24T02:58:37;6.07;;;5.05;;
54921;SDS011;40824;45.116;21.296;2023-04-24T03:01:03;7.55;;;5.38;;
54921;SDS011;40824;45.116;21.296;2023-04-24T03:03:30;7.18;;;5.47;;
54921;SDS011;40824;45.116;21.296;2023-04-24T03:05:56;8.25;;;5.55;;
54921;SDS011;40824;45.116;21.296;2023-04-24T03:08:22;10.35;;;5.60;;
54921;SDS011;40824;45.116;21.296;2023-04-24T03:10:48;7.20;;;5.93;;
54921;SDS011;40824;45.116;21.296;2023-04-24T03:13:17;8.50;;;5.65;;
54921;SDS011;40824;45.116;21.296;2023-04-24T03:15:43;8.00;;;5.63;;
54921;SDS011;40824;45.116;21.296;2023-04-24T03:18:10;8.57;;;5.90;;
54921;SDS011;40824;45.116;21.296;2023-04-24T03:20:36;11.75;;;6.75;;
54921;SDS011;40824;45.116;21.296;2023-04-24T03:23:02;9.43;;;6.18;;
54921;SDS011;40824;45.116;21.296;2023-04-24T03:25:28;10.95;;;6.45;;
54921;SDS011;40824;45.116;21.296;2023-04-24T03:27:54;10.65;;;6.90;;
54921;SDS011;40824;45.116;21.296;2023-04-24T03:30:21;11.68;;;6.45;;
54921;SDS011;40824;45.116;21.296;2023-04-24T03:32:47;11.93;;;7.50;;
54921;SDS011;40824;45.116;21.296;2023-04-24T03:35:13;11.38;;;6.93;;
54921;SDS011;40824;45.116;21.296;2023-04-24T03:37:39;12.75;;;7.45;;
54921;SDS011;40824;45.116;21.296;2023-04-24T03:40:05;8.30;;;6.65;;
54921;SDS011;40824;45.116;21.296;2023-04-24T03:42:33;7.35;;;6.25;;
54921;SDS011;40824;45.116;21.296;2023-04-24T03:44:59;9.80;;;7.18;;
54921;SDS011;40824;45.116;21.296;2023-04-24T03:47:25;10.50;;;6.82;;
54921;SDS011;40824;45.116;21.296;2023-04-24T03:49:51;8.82;;;6.53;;
54921;SDS011;40824;45.116;21.296;2023-04-24T03:52:18;8.60;;;6.30;;
54921;SDS011;40824;45.116;21.296;2023-04-24T03:54:44;8.30;;;5.82;;
54921;SDS011;40824;45.116;21.296;2023-04-24T03:57:10;6.22;;;5.10;;
54921;SDS011;40824;45.116;21.296;2023-04-24T03:59:37;9.00;;;5.90;;
54921;SDS011;40824;45.116;21.296;2023-04-24T04:02:03;10.48;;;6.63;;
54921;SDS011;40824;45.116;21.296;2023-04-24T04:04:29;7.07;;;5.90;;
54921;SDS011;40824;45.116;21.296;2023-04-24T04:06:55;8.00;;;5.97;;
54921;SDS011;40824;45.116;21.296;2023-04-24T04:09:21;9.02;;;6.85;;
54921;SDS011;40824;45.116;21.296;2023-04-24T04:11:47;12.65;;;7.15;;
54921;SDS011;40824;45.116;21.296;2023-04-24T04:14:13;12.18;;;6.43;;
54921;SDS011;40824;45.116;21.296;2023-04-24T04:16:40;7.43;;;5.78;;
54921;SDS011;40824;45.116;21.296;2023-04-24T04:19:06;8.82;;;5.70;;
54921;SDS011;40824;45.116;21.296;2023-04-24T04:21:32;7.35;;;5.57;;
54921;SDS011;40824;45.116;21.296;2023-04-24T04:23:58;11.07;;;6.30;;
54921;SDS011;40824;45.116;21.296;2023-04-24T04:26:27;7.78;;;6.15;;
54921;SDS011;40824;45.116;21.296;2023-04-24T04:28:53;9.77;;;5.82;;
54921;SDS011;40824;45.116;21.296;2023-04-24T04:31:19;11.00;;;6.55;;
54921;SDS011;40824;45.116;21.296;2023-04-24T04:33:46;8.00;;;5.28;;
54921;SDS011;40824;45.116;21.296;2023-04-24T04:36:12;10.27;;;6.72;;
54921;SDS011;40824;45.116;21.296;2023-04-24T04:38:38;9.73;;;6.43;;
54921;SDS011;40824;45.116;21.296;2023-04-24T04:41:05;8.70;;;6.57;;
54921;SDS011;40824;45.116;21.296;2023-04-24T04:43:32;8.30;;;6.22;;
54921;SDS011;40824;45.116;21.296;2023-04-24T04:45:59;10.32;;;6.75;;
54921;SDS011;40824;45.116;21.296;2023-04-24T04:48:26;11.20;;;6.38;;
54921;SDS011;40824;45.116;21.296;2023-04-24T04:50:52;8.90;;;7.07;;
54921;SDS011;40824;45.116;21.296;2023-04-24T04:53:18;8.98;;;6.60;;
54921;SDS011;40824;45.116;21.296;2023-04-24T04:55:44;9.50;;;6.80;;
54921;SDS011;40824;45.116;21.296;2023-04-24T04:58:11;9.35;;;6.68;;
54921;SDS011;40824;45.116;21.296;2023-04-24T05:00:37;9.20;;;7.47;;
54921;SDS011;40824;45.116;21.296;2023-04-24T05:03:07;7.97;;;5.70;;
54921;SDS011;40824;45.116;21.296;2023-04-24T05:05:33;10.25;;;6.28;;
54921;SDS011;40824;45.116;21.296;2023-04-24T05:07:59;9.27;;;6.50;;
54921;SDS011;40824;45.116;21.296;2023-04-24T05:10:25;12.70;;;7.03;;
54921;SDS011;40824;45.116;21.296;2023-04-24T05:12:51;11.02;;;6.68;;
54921;SDS011;40824;45.116;21.296;2023-04-24T05:15:17;8.90;;;6.15;;
54921;SDS011;40824;45.116;21.296;2023-04-24T05:17:43;10.63;;;6.10;;
54921;SDS011;40824;45.116;21.296;2023-04-24T05:20:09;11.18;;;6.50;;
54921;SDS011;40824;45.116;21.296;2023-04-24T05:22:38;14.30;;;6.22;;
54921;SDS011;40824;45.116;21.296;2023-04-24T05:25:07;10.40;;;6.20;;
54921;SDS011;40824;45.116;21.296;2023-04-24T05:27:33;10.43;;;6.05;;
54921;SDS011;40824;45.116;21.296;2023-04-24T05:29:59;8.30;;;6.30;;
54921;SDS011;40824;45.116;21.296;2023-04-24T05:32:25;8.60;;;6.15;;
54921;SDS011;40824;45.116;21.296;2023-04-24T05:34:52;9.05;;;6.13;;
54921;SDS011;40824;45.116;21.296;2023-04-24T05:37:18;9.93;;;6.10;;
54921;SDS011;40824;45.116;21.296;2023-04-24T05:39:44;8.70;;;6.20;;
54921;SDS011;40824;45.116;21.296;2023-04-24T05:42:10;13.20;;;9.15;;
54921;SDS011;40824;45.116;21.296;2023-04-24T05:44:36;12.18;;;7.57;;
54921;SDS011;40824;45.116;21.296;2023-04-24T05:47:02;23.58;;;11.75;;
54921;SDS011;40824;45.116;21.296;2023-04-24T05:49:28;16.10;;;9.02;;
54921;SDS011;40824;45.116;21.296;2023-04-24T05:51:57;12.68;;;6.60;;
54921;SDS011;40824;45.116;21.296;2023-04-24T05:54:23;12.68;;;8.15;;
54921;SDS011;40824;45.116;21.296;2023-04-24T05:56:49;12.73;;;7.95;;
54921;SDS011;40824;45.116;21.296;2023-04-24T05:59:15;12.13;;;8.80;;
54921;SDS011;40824;45.116;21.296;2023-04-24T06:01:42;23.88;;;10.20;;
54921;SDS011;40824;45.116;21.296;2023-04-24T06:04:08;13.70;;;10.52;;
54921;SDS011;40824;45.116;21.296;2023-04-24T06:06:34;21.55;;;12.02;;
54921;SDS011;40824;45.116;21.296;2023-04-24T06:09:01;16.42;;;11.38;;
54921;SDS011;40824;45.116;21.296;2023-04-24T06:11:27;23.00;;;15.65;;
54921;SDS011;40824;45.116;21.296;2023-04-24T06:13:54;17.63;;;13.32;;
54921;SDS011;40824;45.116;21.296;2023-04-24T06:16:20;19.50;;;12.50;;
54921;SDS011;40824;45.116;21.296;2023-04-24T06:18:46;14.25;;;11.75;;
54921;SDS011;40824;45.116;21.296;2023-04-24T06:21:12;17.52;;;11.45;;
54921;SDS011;40824;45.116;21.296;2023-04-24T06:23:39;13.88;;;11.02;;
54921;SDS011;40824;45.116;21.296;2023-04-24T06:26:05;15.73;;;11.55;;
54921;SDS011;40824;45.116;21.296;2023-04-24T06:28:31;15.93;;;12.88;;
54921;SDS011;40824;45.116;21.296;2023-04-24T06:30:57;18.02;;;12.20;;
54921;SDS011;40824;45.116;21.296;2023-04-24T06:33:23;14.70;;;10.75;;
54921;SDS011;40824;45.116;21.296;2023-04-24T06:35:49;14.68;;;11.25;;
54921;SDS011;40824;45.116;21.296;2023-04-24T06:38:15;13.32;;;10.93;;
54921;SDS011;40824;45.116;21.296;2023-04-24T06:40:41;11.13;;;9.25;;
54921;SDS011;40824;45.116;21.296;2023-04-24T06:43:08;9.60;;;8.20;;
54921;SDS011;40824;45.116;21.296;2023-04-24T06:45:36;8.65;;;7.55;;
54921;SDS011;40824;45.116;21.296;2023-04-24T06:48:03;12.13;;;8.15;;
54921;SDS011;40824;45.116;21.296;2023-04-24T06:50:29;12.88;;;8.57;;
54921;SDS011;40824;45.116;21.296;2023-04-24T06:52:56;12.35;;;8.68;;
54921;SDS011;40824;45.116;21.296;2023-04-24T06:55:22;11.07;;;9.15;;
54921;SDS011;40824;45.116;21.296;2023-04-24T06:57:48;10.02;;;8.63;;
54921;SDS011;40824;45.116;21.296;2023-04-24T07:00:14;11.35;;;9.00;;
54921;SDS011;40824;45.116;21.296;2023-04-24T07:02:40;11.60;;;9.38;;
54921;SDS011;40824;45.116;21.296;2023-04-24T07:05:06;11.35;;;9.18;;
54921;SDS011;40824;45.116;21.296;2023-04-24T07:07:33;10.10;;;9.05;;
54921;SDS011;40824;45.116;21.296;2023-04-24T07:09:59;11.73;;;9.38;;
54921;SDS011;40824;45.116;21.296;2023-04-24T07:12:25;18.17;;;11.00;;
54921;SDS011;40824;45.116;21.296;2023-04-24T07:14:51;11.50;;;9.20;;
54921;SDS011;40824;45.116;21.296;2023-04-24T07:17:17;11.57;;;9.18;;
54921;SDS011;40824;45.116;21.296;2023-04-24T07:19:44;10.90;;;9.55;;
54921;SDS011;40824;45.116;21.296;2023-04-24T07:22:10;14.57;;;10.00;;
54921;SDS011;40824;45.116;21.296;2023-04-24T07:24:41;9.30;;;8.05;;
54921;SDS011;40824;45.116;21.296;2023-04-24T07:27:08;9.85;;;8.73;;
54921;SDS011;40824;45.116;21.296;2023-04-24T07:29:34;10.13;;;8.02;;
54921;SDS011;40824;45.116;21.296;2023-04-24T07:32:00;11.88;;;8.15;;
54921;SDS011;40824;45.116;21.296;2023-04-24T07:34:26;9.18;;;7.80;;
54921;SDS011;40824;45.116;21.296;2023-04-24T07:36:55;12.00;;;9.00;;
54921;SDS011;40824;45.116;21.296;2023-04-24T07:39:21;9.25;;;8.18;;
54921;SDS011;40824;45.116;21.296;2023-04-24T07:41:48;10.13;;;8.05;;
54921;SDS011;40824;45.116;21.296;2023-04-24T07:44:14;14.27;;;8.90;;
54921;SDS011;40824;45.116;21.296;2023-04-24T07:46:40;10.25;;;8.55;;
54921;SDS011;40824;45.116;21.296;2023-04-24T07:49:06;9.55;;;7.30;;
54921;SDS011;40824;45.116;21.296;2023-04-24T07:51:32;9.35;;;7.72;;
54921;SDS011;40824;45.116;21.296;2023-04-24T07:54:03;12.48;;;7.32;;
54921;SDS011;40824;45.116;21.296;2023-04-24T07:56:30;9.30;;;7.22;;
54921;SDS011;40824;45.116;21.296;2023-04-24T07:58:56;10.20;;;7.32;;
54921;SDS011;40824;45.116;21.296;2023-04-24T08:01:22;10.90;;;7.07;;
54921;SDS011;40824;45.116;21.296;2023-04-24T08:03:49;8.85;;;7.15;;
54921;SDS011;40824;45.116;21.296;2023-04-24T08:06:15;8.98;;;7.38;;
54921;SDS011;40824;45.116;21.296;2023-04-24T08:08:41;11.35;;;7.53;;
54921;SDS011;40824;45.116;21.296;2023-04-24T08:11:07;13.68;;;7.38;;
54921;SDS011;40824;45.116;21.296;2023-04-24T08:13:33;11.93;;;7.18;;
54921;SDS011;40824;45.116;21.296;2023-04-24T08:16:00;10.95;;;7.32;;
54921;SDS011;40824;45.116;21.296;2023-04-24T08:18:26;10.90;;;7.40;;
54921;SDS011;40824;45.116;21.296;2023-04-24T08:20:52;8.45;;;7.50;;
54921;SDS011;40824;45.116;21.296;2023-04-24T08:23:18;10.38;;;7.00;;
54921;SDS011;40824;45.116;21.296;2023-04-24T08:25:44;9.52;;;7.38;;
54921;SDS011;40824;45.116;21.296;2023-04-24T08:28:10;10.57;;;7.53;;
54921;SDS011;40824;45.116;21.296;2023-04-24T08:30:36;10.77;;;7.93;;
54921;SDS011;40824;45.116;21.296;2023-04-24T08:33:03;12.07;;;7.45;;
54921;SDS011;40824;45.116;21.296;2023-04-24T08:35:29;10.68;;;7.68;;
54921;SDS011;40824;45.116;21.296;2023-04-24T08:37:55;10.68;;;6.82;;
54921;SDS011;40824;45.116;21.296;2023-04-24T08:40:23;10.10;;;6.65;;
54921;SDS011;40824;45.116;21.296;2023-04-24T08:42:53;10.90;;;6.78;;
54921;SDS011;40824;45.116;21.296;2023-04-24T08:45:21;10.32;;;7.30;;
54921;SDS011;40824;45.116;21.296;2023-04-24T08:47:47;13.10;;;8.23;;
54921;SDS011;40824;45.116;21.296;2023-04-24T08:50:14;10.20;;;6.85;;
54921;SDS011;40824;45.116;21.296;2023-04-24T08:52:41;8.27;;;7.40;;
54921;SDS011;40824;45.116;21.296;2023-04-24T08:55:08;8.38;;;6.85;;
54921;SDS011;40824;45.116;21.296;2023-04-24T08:57:34;8.32;;;6.90;;
54921;SDS011;40824;45.116;21.296;2023-04-24T09:00:03;10.48;;;7.32;;
54921;SDS011;40824;45.116;21.296;2023-04-24T09:02:29;8.90;;;7.13;;
54921;SDS011;40824;45.116;21.296;2023-04-24T09:04:57;14.30;;;7.20;;
54921;SDS011;40824;45.116;21.296;2023-04-24T09:07:24;11.63;;;8.02;;
54921;SDS011;40824;45.116;21.296;2023-04-24T09:09:51;9.77;;;7.30;;
54921;SDS011;40824;45.116;21.296;2023-04-24T09:12:17;9.85;;;7.65;;
54921;SDS011;40824;45.116;21.296;2023-04-24T09:14:45;13.02;;;7.80;;
54921;SDS011;40824;45.116;21.296;2023-04-24T09:17:11;9.18;;;7.63;;
54921;SDS011;40824;45.116;21.296;2023-04-24T09:19:37;16.77;;;7.25;;
54921;SDS011;40824;45.116;21.296;2023-04-24T09:22:09;8.65;;;6.57;;
54921;SDS011;40824;45.116;21.296;2023-04-24T09:24:38;9.10;;;6.47;;
54921;SDS011;40824;45.116;21.296;2023-04-24T09:27:04;8.95;;;6.88;;
54921;SDS011;40824;45.116;21.296;2023-04-24T09:29:30;11.65;;;6.63;;
54921;SDS011;40824;45.116;21.296;2023-04-24T09:31:57;13.45;;;7.00;;
54921;SDS011;40824;45.116;21.296;2023-04-24T09:34:27;14.38;;;7.07;;
54921;SDS011;40824;45.116;21.296;2023-04-24T09:36:53;8.07;;;6.20;;
54921;SDS011;40824;45.116;21.296;2023-04-24T09:39:19;9.57;;;6.90;;
54921;SDS011;40824;45.116;21.296;2023-04-24T09:44:16;9.70;;;6.95;;
54921;SDS011;40824;45.116;21.296;2023-04-24T09:46:42;9.65;;;6.38;;
54921;SDS011;40824;45.116;21.296;2023-04-24T09:49:10;10.82;;;6.57;;
54921;SDS011;40824;45.116;21.296;2023-04-24T09:51:37;10.40;;;6.20;;
54921;SDS011;40824;45.116;21.296;2023-04-24T09:54:03;7.93;;;6.00;;
54921;SDS011;40824;45.116;21.296;2023-04-24T09:56:34;9.05;;;5.80;;
54921;SDS011;40824;45.116;21.296;2023-04-24T09:59:06;7.15;;;5.72;;
54921;SDS011;40824;45.116;21.296;2023-04-24T10:01:33;14.15;;;6.53;;
54921;SDS011;40824;45.116;21.296;2023-04-24T10:04:00;8.15;;;6.18;;
54921;SDS011;40824;45.116;21.296;2023-04-24T10:06:31;10.13;;;6.65;;
54921;SDS011;40824;45.116;21.296;2023-04-24T10:08:57;6.72;;;5.70;;
54921;SDS011;40824;45.116;21.296;2023-04-24T10:11:25;11.38;;;6.13;;
54921;SDS011;40824;45.116;21.296;2023-04-24T10:13:52;7.85;;;6.40;;
54921;SDS011;40824;45.116;21.296;2023-04-24T10:16:19;8.88;;;6.47;;
54921;SDS011;40824;45.116;21.296;2023-04-24T10:18:48;11.23;;;6.72;;
54921;SDS011;40824;45.116;21.296;2023-04-24T10:21:14;9.48;;;6.55;;
54921;SDS011;40824;45.116;21.296;2023-04-24T10:23:41;8.73;;;6.20;;
54921;SDS011;40824;45.116;21.296;2023-04-24T10:26:10;11.48;;;6.55;;
54921;SDS011;40824;45.116;21.296;2023-04-24T10:28:43;11.70;;;6.95;;
54921;SDS011;40824;45.116;21.296;2023-04-24T10:31:10;9.60;;;5.78;;
54921;SDS011;40824;45.116;21.296;2023-04-24T10:33:36;7.25;;;5.70;;
54921;SDS011;40824;45.116;21.296;2023-04-24T10:36:05;10.63;;;6.47;;
54921;SDS011;40824;45.116;21.296;2023-04-24T10:38:31;7.75;;;6.05;;
54921;SDS011;40824;45.116;21.296;2023-04-24T10:41:08;7.45;;;5.75;;
54921;SDS011;40824;45.116;21.296;2023-04-24T10:43:35;8.23;;;6.22;;
54921;SDS011;40824;45.116;21.296;2023-04-24T10:46:02;11.68;;;6.97;;
54921;SDS011;40824;45.116;21.296;2023-04-24T10:48:28;7.57;;;5.60;;
54921;SDS011;40824;45.116;21.296;2023-04-24T10:50:54;7.53;;;5.35;;
54921;SDS011;40824;45.116;21.296;2023-04-24T10:53:21;8.02;;;6.00;;
54921;SDS011;40824;45.116;21.296;2023-04-24T11:01:03;10.32;;;5.30;;
54921;SDS011;40824;45.116;21.296;2023-04-24T11:03:30;9.30;;;6.32;;
54921;SDS011;40824;45.116;21.296;2023-04-24T11:05:57;7.82;;;5.53;;
54921;SDS011;40824;45.116;21.296;2023-04-24T11:08:28;7.22;;;5.65;;
54921;SDS011;40824;45.116;21.296;2023-04-24T11:10:56;12.77;;;5.75;;
54921;SDS011;40824;45.116;21.296;2023-04-24T11:13:23;8.25;;;5.25;;
54921;SDS011;40824;45.116;21.296;2023-04-24T11:18:37;12.05;;;6.45;;
54921;SDS011;40824;45.116;21.296;2023-04-24T11:21:12;9.27;;;5.72;;
54921;SDS011;40824;45.116;21.296;2023-04-24T11:23:39;9.45;;;6.78;;
54921;SDS011;40824;45.116;21.296;2023-04-24T11:26:23;7.40;;;6.18;;
54921;SDS011;40824;45.116;21.296;2023-04-24T11:28:55;8.00;;;5.60;;
54921;SDS011;40824;45.116;21.296;2023-04-24T11:31:38;13.10;;;6.28;;
54921;SDS011;40824;45.116;21.296;2023-04-24T11:34:08;9.05;;;6.85;;
54921;SDS011;40824;45.116;21.296;2023-04-24T11:36:35;9.10;;;6.65;;
54921;SDS011;40824;45.116;21.296;2023-04-24T11:39:01;7.45;;;6.40;;
54921;SDS011;40824;45.116;21.296;2023-04-24T11:41:28;9.65;;;7.35;;
54921;SDS011;40824;45.116;21.296;2023-04-24T11:43:54;8.80;;;7.63;;
54921;SDS011;40824;45.116;21.296;2023-04-24T11:46:21;9.95;;;7.55;;
54921;SDS011;40824;45.116;21.296;2023-04-24T11:48:47;10.98;;;7.88;;
54921;SDS011;40824;45.116;21.296;2023-04-24T11:51:13;9.05;;;7.60;;
54921;SDS011;40824;45.116;21.296;2023-04-24T11:53:40;13.20;;;8.90;;
54921;SDS011;40824;45.116;21.296;2023-04-24T11:56:06;17.23;;;11.07;;
54921;SDS011;40824;45.116;21.296;2023-04-24T11:58:35;14.80;;;12.00;;
54921;SDS011;40824;45.116;21.296;2023-04-24T12:01:01;17.55;;;11.07;;
54921;SDS011;40824;45.116;21.296;2023-04-24T12:03:27;16.20;;;13.82;;
54921;SDS011;40824;45.116;21.296;2023-04-24T12:06:04;19.02;;;11.40;;
54921;SDS011;40824;45.116;21.296;2023-04-24T12:08:31;15.48;;;10.35;;
54921;SDS011;40824;45.116;21.296;2023-04-24T12:10:57;11.55;;;9.93;;
54921;SDS011;40824;45.116;21.296;2023-04-24T12:13:25;13.35;;;10.05;;
54921;SDS011;40824;45.116;21.296;2023-04-24T12:15:51;14.45;;;9.95;;
54921;SDS011;40824;45.116;21.296;2023-04-24T12:18:17;10.55;;;8.98;;
54921;SDS011;40824;45.116;21.296;2023-04-24T12:20:43;14.02;;;9.80;;
54921;SDS011;40824;45.116;21.296;2023-04-24T12:23:10;14.27;;;10.07;;
54921;SDS011;40824;45.116;21.296;2023-04-24T12:25:36;15.48;;;9.30;;
54921;SDS011;40824;45.116;21.296;2023-04-24T12:30:34;10.35;;;8.95;;
54921;SDS011;40824;45.116;21.296;2023-04-24T12:33:01;11.70;;;10.32;;
54921;SDS011;40824;45.116;21.296;2023-04-24T12:35:29;10.60;;;9.40;;
54921;SDS011;40824;45.116;21.296;2023-04-24T12:38:04;11.52;;;9.07;;
54921;SDS011;40824;45.116;21.296;2023-04-24T12:40:31;9.75;;;8.75;;
54921;SDS011;40824;45.116;21.296;2023-04-24T12:42:57;12.00;;;8.85;;
54921;SDS011;40824;45.116;21.296;2023-04-24T12:45:23;9.73;;;8.73;;
54921;SDS011;40824;45.116;21.296;2023-04-24T12:47:50;9.65;;;8.60;;
54921;SDS011;40824;45.116;21.296;2023-04-24T12:50:16;9.80;;;7.82;;
54921;SDS011;40824;45.116;21.296;2023-04-24T12:52:43;11.35;;;7.25;;
54921;SDS011;40824;45.116;21.296;2023-04-24T12:55:09;9.98;;;8.52;;
54921;SDS011;40824;45.116;21.296;2023-04-24T12:57:37;13.30;;;8.93;;
54921;SDS011;40824;45.116;21.296;2023-04-24T13:00:04;9.82;;;7.93;;
54921;SDS011;40824;45.116;21.296;2023-04-24T13:02:30;10.63;;;8.30;;
54921;SDS011;40824;45.116;21.296;2023-04-24T13:04:57;13.45;;;9.00;;
54921;SDS011;40824;45.116;21.296;2023-04-24T13:07:26;10.38;;;8.80;;
54921;SDS011;40824;45.116;21.296;2023-04-24T13:09:54;11.55;;;9.52;;
54921;SDS011;40824;45.116;21.296;2023-04-24T13:12:20;9.65;;;8.63;;
54921;SDS011;40824;45.116;21.296;2023-04-24T13:14:46;13.80;;;9.30;;
54921;SDS011;40824;45.116;21.296;2023-04-24T13:17:12;11.40;;;8.98;;
54921;SDS011;40824;45.116;21.296;2023-04-24T13:19:40;10.40;;;7.80;;
54921;SDS011;40824;45.116;21.296;2023-04-24T13:22:08;9.63;;;7.80;;
54921;SDS011;40824;45.116;21.296;2023-04-24T13:24:34;9.48;;;8.02;;
54921;SDS011;40824;45.116;21.296;2023-04-24T13:27:01;13.15;;;8.63;;
54921;SDS011;40824;45.116;21.296;2023-04-24T13:29:27;16.23;;;11.48;;
54921;SDS011;40824;45.116;21.296;2023-04-24T13:31:54;15.48;;;12.82;;
54921;SDS011;40824;45.116;21.296;2023-04-24T13:34:20;14.35;;;11.88;;
54921;SDS011;40824;45.116;21.296;2023-04-24T13:36:47;13.23;;;9.88;;
54921;SDS011;40824;45.116;21.296;2023-04-24T13:39:13;10.68;;;9.57;;
54921;SDS011;40824;45.116;21.296;2023-04-24T13:41:39;11.75;;;8.82;;
54921;SDS011;40824;45.116;21.296;2023-04-24T13:44:05;9.63;;;7.55;;
54921;SDS011;40824;45.116;21.296;2023-04-24T13:46:31;9.07;;;8.13;;
54921;SDS011;40824;45.116;21.296;2023-04-24T13:48:58;10.13;;;8.80;;
54921;SDS011;40824;45.116;21.296;2023-04-24T13:51:27;10.02;;;7.45;;
54921;SDS011;40824;45.116;21.296;2023-04-24T13:53:53;9.95;;;8.35;;
54921;SDS011;40824;45.116;21.296;2023-04-24T13:56:20;10.05;;;7.47;;
54921;SDS011;40824;45.116;21.296;2023-04-24T13:58:47;11.68;;;7.75;;
54921;SDS011;40824;45.116;21.296;2023-04-24T14:01:16;12.05;;;8.48;;
54921;SDS011;40824;45.116;21.296;2023-04-24T14:03:42;11.20;;;8.00;;
54921;SDS011;40824;45.116;21.296;2023-04-24T14:06:08;12.52;;;7.57;;
54921;SDS011;40824;45.116;21.296;2023-04-24T14:08:34;11.25;;;7.82;;
54921;SDS011;40824;45.116;21.296;2023-04-24T14:11:01;9.98;;;8.20;;
54921;SDS011;40824;45.116;21.296;2023-04-24T14:13:27;11.63;;;9.10;;
54921;SDS011;40824;45.116;21.296;2023-04-24T14:15:54;13.32;;;10.40;;
54921;SDS011;40824;45.116;21.296;2023-04-24T14:18:20;15.13;;;10.57;;
54921;SDS011;40824;45.116;21.296;2023-04-24T14:20:46;15.00;;;10.02;;
54921;SDS011;40824;45.116;21.296;2023-04-24T14:23:12;16.23;;;9.73;;
54921;SDS011;40824;45.116;21.296;2023-04-24T14:25:38;12.60;;;8.45;;
54921;SDS011;40824;45.116;21.296;2023-04-24T14:28:05;11.75;;;8.10;;
54921;SDS011;40824;45.116;21.296;2023-04-24T14:30:32;10.98;;;7.65;;
54921;SDS011;40824;45.116;21.296;2023-04-24T14:32:58;11.25;;;7.47;;
54921;SDS011;40824;45.116;21.296;2023-04-24T14:35:24;10.35;;;7.10;;